Time;durP1;ratioP1;P1;durP2;ratioP2;P2;SDS_P1;SDS_P2;PMS_P1;PMS_P2;Temp;Humidity;BMP_temperature;BMP_pressure;BME280_temperature;BME280_humidity;BME280_pressure;Samples;Min_cycle;Max_cycle;Signal;HPM_P1;HPM_P2
2022/05/03 00:00:20;;;;;;;;;;;15.70;99.90;;;;;;5074730;28;20048;-76
2022/05/03 00:02:57;;;;;;;5.53;1.05;;;15.70;99.90;;;;;;5074187;28;19905;-76
2022/05/03 00:05:37;;;;;;;2.70;0.70;;;15.70;99.90;;;;;;5073970;28;20025;-76
2022/05/03 00:08:16;;;;;;;2.80;1.17;;;15.70;99.90;;;;;;5074652;28;20027;-75
2022/05/03 00:11:09;;;;;;;2.88;1.15;;;15.80;99.90;;;;;;5073871;28;20016;-76
2022/05/03 00:14:03;;;;;;;5.60;0.73;;;15.80;99.90;;;;;;5073704;28;20020;-75
2022/05/03 00:16:33;;;;;;;2.38;0.60;;;15.90;99.90;;;;;;5068312;28;20111;-75
2022/05/03 00:19:09;;;;;;;1.35;0.80;;;16.00;99.90;;;;;;5073638;28;20024;-75
2022/05/03 00:21:38;;;;;;;1.70;0.90;;;16.00;99.90;;;;;;5074041;28;20025;-75
2022/05/03 00:24:07;;;;;;;3.83;1.02;;;16.00;99.90;;;;;;5073692;28;20115;-75
2022/05/03 00:26:36;;;;;;;4.72;1.08;;;16.10;99.90;;;;;;5073396;28;20040;-76
2022/05/03 00:29:04;;;;;;;1.67;0.70;;;16.20;99.90;;;;;;5073606;28;20021;-75
2022/05/03 00:31:32;;;;;;;4.63;0.73;;;16.30;99.90;;;;;;5073639;28;20424;-76
2022/05/03 00:34:00;;;;;;;6.75;1.13;;;16.40;99.90;;;;;;5073318;28;20094;-75
2022/05/03 00:36:28;;;;;;;3.15;1.13;;;16.40;99.90;;;;;;5073456;28;20461;-76
2022/05/03 00:38:56;;;;;;;2.28;0.68;;;16.50;99.90;;;;;;5073449;28;20478;-75
2022/05/03 00:41:44;;;;;;;1.75;0.77;;;16.60;99.90;;;;;;5073568;28;20024;-75
2022/05/03 00:44:55;;;;;;;2.78;0.85;;;16.70;99.90;;;;;;5072306;28;20025;-75
2022/05/03 00:47:53;;;;;;;11.00;0.90;;;16.80;99.90;;;;;;5068885;28;20075;-76
2022/05/03 00:50:39;;;;;;;1.17;0.63;;;16.80;99.90;;;;;;5073523;28;20028;-75
2022/05/03 00:53:38;;;;;;;4.03;0.45;;;16.80;99.90;;;;;;5073597;28;20039;-75
2022/05/03 00:56:34;;;;;;;2.45;0.50;;;16.90;99.90;;;;;;5073040;28;20043;-75
2022/05/03 00:59:48;;;;;;;1.90;0.57;;;17.00;99.90;;;;;;5073396;28;20032;-74
2022/05/03 01:02:26;;;;;;;2.08;0.57;;;17.10;99.90;;;;;;5064161;28;20315;-75
2022/05/03 01:05:06;;;;;;;1.00;0.88;;;17.20;99.90;;;;;;5073298;28;20104;-75
2022/05/03 01:08:07;;;;;;;4.28;0.75;;;17.20;99.90;;;;;;5073703;28;20025;-75
2022/05/03 01:10:49;;;;;;;2.17;0.47;;;17.20;99.90;;;;;;5075255;28;20039;-75
2022/05/03 01:13:34;;;;;;;3.20;0.73;;;17.30;99.90;;;;;;5077599;28;20025;-75
2022/05/03 01:16:16;;;;;;;2.10;0.70;;;17.30;99.90;;;;;;5076978;28;20020;-75
2022/05/03 01:19:13;;;;;;;2.63;0.77;;;17.30;99.90;;;;;;5077120;28;20021;-75
2022/05/03 01:21:58;;;;;;;1.77;0.50;;;17.40;99.90;;;;;;5075717;28;20025;-76
2022/05/03 01:24:55;;;;;;;3.58;0.70;;;17.40;99.90;;;;;;5077008;28;20071;-75
2022/05/03 01:27:33;;;;;;;4.18;0.77;;;17.50;99.90;;;;;;5076898;28;20111;-75
2022/05/03 01:30:03;;;;;;;3.15;0.43;;;17.50;99.90;;;;;;5077178;28;20029;-75
2022/05/03 01:32:33;;;;;;;6.75;0.73;;;17.50;99.90;;;;;;5076913;28;20058;-74
2022/05/03 01:35:06;;;;;;;1.75;0.60;;;17.60;99.90;;;;;;5076362;28;20075;-75
2022/05/03 01:37:56;;;;;;;3.15;0.55;;;17.60;99.90;;;;;;5076690;28;20469;-75
2022/05/03 01:40:36;;;;;;;2.58;0.77;;;17.60;99.90;;;;;;5077315;28;20025;-75
2022/05/03 01:43:53;;;;;;;6.22;1.15;;;17.60;99.90;;;;;;5076827;28;20024;-75
2022/05/03 01:46:35;;;;;;;4.80;0.82;;;17.70;99.90;;;;;;5059075;28;20094;-75
2022/05/03 01:52:17;;;;;;;1.98;0.68;;;17.80;99.90;;;;;;5076779;28;20059;-75
2022/05/03 01:54:56;;;;;;;6.75;0.40;;;17.80;99.90;;;;;;5076337;28;20043;-75
2022/05/03 01:58:09;;;;;;;3.83;0.70;;;17.90;99.90;;;;;;5076567;28;20095;-75
2022/05/03 02:00:38;;;;;;;1.73;0.65;;;17.80;99.90;;;;;;5068206;28;20428;-75
2022/05/03 02:03:30;;;;;;;3.20;0.40;;;17.90;99.90;;;;;;5076120;28;20046;-75
2022/05/03 02:06:12;;;;;;;3.95;0.90;;;17.90;99.90;;;;;;5076270;28;20025;-75
2022/05/03 02:08:56;;;;;;;7.40;1.25;;;17.90;99.90;;;;;;5074821;28;20024;-75
2022/05/03 02:11:27;;;;;;;1.23;0.40;;;17.90;99.90;;;;;;5076187;28;20103;-75
2022/05/03 02:16:54;;;;;;;1.88;0.55;;;18.00;99.90;;;;;;5076398;28;20116;-76
2022/05/03 02:19:34;;;;;;;0.40;0.30;;;18.20;99.90;;;;;;5074987;28;20024;-75
2022/05/03 02:22:23;;;;;;;3.22;1.10;;;18.10;99.90;;;;;;5075790;28;20078;-75
2022/05/03 02:25:03;;;;;;;2.90;0.68;;;18.20;99.90;;;;;;5076104;28;20023;-75
2022/05/03 02:27:32;;;;;;;3.70;0.70;;;18.20;99.90;;;;;;5075927;28;20037;-75
2022/05/03 02:30:03;;;;;;;0.63;0.32;;;18.20;99.90;;;;;;5075842;28;20395;-75
2022/05/03 02:33:04;;;;;;;5.72;0.70;;;18.20;99.90;;;;;;5075769;28;20024;-75
2022/05/03 02:35:36;;;;;;;2.83;0.52;;;18.30;99.90;;;;;;5075111;28;20405;-74
2022/05/03 02:38:06;;;;;;;3.10;0.40;;;18.30;99.90;;;;;;5075493;28;20443;-75
2022/05/03 02:40:41;;;;;;;1.90;0.45;;;18.40;99.90;;;;;;5075591;28;20028;-75
2022/05/03 02:43:10;;;;;;;4.97;0.73;;;18.40;99.90;;;;;;5075647;28;20024;-75
2022/05/03 02:45:53;;;;;;;6.72;0.55;;;18.50;99.90;;;;;;5075524;28;20078;-75
2022/05/03 02:48:38;;;;;;;2.42;0.90;;;18.60;99.90;;;;;;5075451;28;20070;-75
2022/05/03 02:51:09;;;;;;;3.80;0.52;;;18.70;99.90;;;;;;5075410;28;20103;-75
2022/05/03 02:53:55;;;;;;;7.05;0.75;;;18.70;99.90;;;;;;5075389;28;20071;-75
2022/05/03 02:56:32;;;;;;;4.03;0.88;;;18.70;99.90;;;;;;5075236;28;20382;-75
2022/05/03 03:01:47;;;;;;;1.10;0.57;;;18.70;99.90;;;;;;5075272;28;20493;-75
2022/05/03 03:02:51;;;;;;;2.22;0.50;;;18.70;99.90;;;;;;5075122;28;20504;-75
2022/05/03 03:05:21;;;;;;;;;;;18.70;99.90;;;;;;5075290;28;20021;-75
2022/05/03 03:08:03;;;;;;;2.22;0.75;;;18.70;99.90;;;;;;5075153;28;19904;-75
2022/05/03 03:10:57;;;;;;;2.40;0.98;;;18.70;99.90;;;;;;5074940;28;20058;-75
2022/05/03 03:14:00;;;;;;;3.58;0.85;;;18.80;99.90;;;;;;5075037;28;20055;-75
2022/05/03 03:16:33;;;;;;;1.25;0.45;;;18.80;99.90;;;;;;5074784;28;20033;-74
2022/05/03 03:19:13;;;;;;;1.55;0.52;;;18.80;99.90;;;;;;5075022;28;20075;-74
2022/05/03 03:21:42;;;;;;;2.88;0.20;;;18.80;99.90;;;;;;5074820;28;20052;-74
2022/05/03 03:24:10;;;;;;;2.92;0.98;;;18.80;99.90;;;;;;5074779;28;20017;-73
2022/05/03 03:26:40;;;;;;;1.83;0.80;;;18.90;99.90;;;;;;5074526;28;20481;-73
2022/05/03 03:29:09;;;;;;;2.60;0.30;;;18.90;99.90;;;;;;5074618;28;20028;-74
2022/05/03 03:31:37;;;;;;;4.07;0.88;;;18.90;99.90;;;;;;5074413;28;20027;-73
2022/05/03 03:34:06;;;;;;;3.85;0.43;;;19.00;99.90;;;;;;5074257;28;20048;-74
2022/05/03 03:36:34;;;;;;;1.67;0.40;;;19.00;99.90;;;;;;5074234;28;20373;-73
2022/05/03 03:39:02;;;;;;;2.05;0.63;;;19.00;99.90;;;;;;5074439;28;20031;-73
2022/05/03 03:41:30;;;;;;;2.75;0.40;;;19.00;99.90;;;;;;5074415;28;20392;-74
2022/05/03 03:43:58;;;;;;;0.75;0.20;;;19.00;99.90;;;;;;5074212;28;20381;-73
2022/05/03 03:46:26;;;;;;;4.00;0.38;;;19.00;99.90;;;;;;5074067;28;20115;-74
2022/05/03 03:48:53;;;;;;;3.75;0.50;;;19.00;99.90;;;;;;5074180;28;20477;-74
2022/05/03 03:51:21;;;;;;;2.50;0.55;;;19.00;99.90;;;;;;5074198;28;20033;-74
2022/05/03 03:53:50;;;;;;;0.85;0.30;;;19.10;99.90;;;;;;5074187;28;20024;-74
2022/05/03 03:56:18;;;;;;;2.05;0.73;;;19.10;99.90;;;;;;5074019;28;20404;-74
2022/05/03 03:58:47;;;;;;;2.38;0.77;;;19.10;99.90;;;;;;5073913;28;20029;-74
2022/05/03 04:01:15;;;;;;;2.85;0.52;;;19.00;99.90;;;;;;5074002;28;20031;-74
2022/05/03 04:03:43;;;;;;;2.58;0.45;;;19.10;99.90;;;;;;5074002;28;20056;-74
2022/05/03 04:06:11;;;;;;;1.02;0.50;;;19.10;99.90;;;;;;5073686;28;20028;-73
2022/05/03 04:08:39;;;;;;;1.27;0.40;;;19.10;99.90;;;;;;5073969;28;20035;-74
2022/05/03 04:11:17;;;;;;;3.17;0.82;;;19.10;99.90;;;;;;5073788;28;20020;-74
2022/05/03 04:13:46;;;;;;;2.75;0.93;;;19.10;99.90;;;;;;5074359;28;20024;-73
2022/05/03 04:16:13;;;;;;;2.40;0.57;;;19.10;99.90;;;;;;5073672;28;20396;-74
2022/05/03 04:18:45;;;;;;;0.60;0.40;;;19.20;99.90;;;;;;5073552;28;20067;-74
2022/05/03 04:21:20;;;;;;;1.08;0.40;;;19.20;99.90;;;;;;5073903;28;20025;-74
2022/05/03 04:23:48;;;;;;;3.22;0.73;;;19.20;99.90;;;;;;5073377;28;20027;-74
2022/05/03 04:26:15;;;;;;;2.10;0.65;;;19.10;99.90;;;;;;5073432;28;20036;-74
2022/05/03 04:28:43;;;;;;;5.10;0.50;;;19.10;99.90;;;;;;5072490;28;20095;-74
2022/05/03 04:31:11;;;;;;;2.72;0.82;;;19.10;99.90;;;;;;5073650;28;20025;-74
2022/05/03 04:33:38;;;;;;;1.15;0.40;;;19.00;99.90;;;;;;5073352;28;20027;-74
2022/05/03 04:36:06;;;;;;;3.28;0.70;;;19.10;99.90;;;;;;5073270;28;20024;-74
2022/05/03 04:38:34;;;;;;;3.10;0.50;;;19.00;99.90;;;;;;5073353;28;20028;-74
2022/05/03 04:41:05;;;;;;;1.58;0.30;;;19.10;99.90;;;;;;5073381;28;20099;-74
2022/05/03 04:43:32;;;;;;;1.00;0.32;;;19.10;99.90;;;;;;5073066;28;20056;-74
2022/05/03 04:46:00;;;;;;;2.63;0.35;;;19.10;99.90;;;;;;5073328;28;20115;-74
2022/05/03 04:48:29;;;;;;;1.85;0.40;;;19.10;99.90;;;;;;5073548;28;20035;-74
2022/05/03 04:50:57;;;;;;;1.95;0.40;;;19.10;99.90;;;;;;5073214;28;20024;-74
2022/05/03 04:53:25;;;;;;;1.33;0.50;;;19.20;99.90;;;;;;5071995;28;20377;-74
2022/05/03 04:55:52;;;;;;;0.98;0.40;;;19.20;99.90;;;;;;5073129;28;20016;-74
2022/05/03 04:58:20;;;;;;;1.88;0.40;;;19.30;99.90;;;;;;5073647;28;20427;-74
2022/05/03 05:00:48;;;;;;;2.45;0.93;;;19.40;99.90;;;;;;5073348;28;20108;-74
2022/05/03 05:03:15;;;;;;;5.40;1.02;;;19.40;99.90;;;;;;5073211;28;20028;-74
2022/05/03 05:05:43;;;;;;;5.97;1.27;;;19.30;99.90;;;;;;5071704;28;20393;-74
2022/05/03 05:08:11;;;;;;;3.70;0.60;;;19.30;99.90;;;;;;5073274;28;20036;-74
2022/05/03 05:10:39;;;;;;;2.13;0.80;;;19.30;99.90;;;;;;5073168;28;20021;-74
2022/05/03 05:13:06;;;;;;;2.95;0.68;;;19.20;99.90;;;;;;5073284;28;20035;-74
2022/05/03 05:15:34;;;;;;;2.40;0.85;;;19.20;99.90;;;;;;5072974;28;20523;-74
2022/05/03 05:18:02;;;;;;;5.30;0.80;;;19.20;99.90;;;;;;5073133;28;20027;-74
2022/05/03 05:20:30;;;;;;;1.92;0.73;;;19.20;99.90;;;;;;5073128;28;20025;-73
2022/05/03 05:22:57;;;;;;;1.35;0.47;;;19.20;99.90;;;;;;5073094;28;20012;-73
2022/05/03 05:25:25;;;;;;;4.43;0.95;;;19.10;99.90;;;;;;5073037;28;20025;-73
2022/05/03 05:27:53;;;;;;;4.13;0.77;;;19.10;99.90;;;;;;5073050;28;20524;-73
2022/05/03 05:30:21;;;;;;;3.55;0.50;;;19.10;99.90;;;;;;5072938;28;20036;-73
2022/05/03 05:32:48;;;;;;;2.25;0.55;;;19.10;99.90;;;;;;5073033;28;20056;-73
2022/05/03 05:35:16;;;;;;;3.40;0.88;;;19.10;99.90;;;;;;5072629;28;20044;-74
2022/05/03 05:37:44;;;;;;;2.65;0.70;;;19.10;99.90;;;;;;5072999;28;20056;-73
2022/05/03 05:40:12;;;;;;;4.20;0.70;;;19.20;99.90;;;;;;5072862;28;20016;-74
2022/05/03 05:42:40;;;;;;;1.92;0.55;;;19.20;99.90;;;;;;5073033;28;20016;-73
2022/05/03 05:45:08;;;;;;;5.70;0.75;;;19.30;99.90;;;;;;5072530;28;20024;-74
2022/05/03 05:47:36;;;;;;;5.03;1.30;;;19.30;99.90;;;;;;5072777;28;20032;-74
2022/05/03 05:50:03;;;;;;;1.77;0.63;;;19.30;99.90;;;;;;5072966;28;20145;-74
2022/05/03 05:55:16;;;;;;;1.50;0.85;;;19.30;99.90;;;;;;5074091;28;20508;-74
2022/05/03 05:57:44;;;;;;;6.18;1.00;;;19.30;99.90;;;;;;5076254;28;20035;-74
2022/05/03 06:00:13;;;;;;;5.32;1.60;;;19.20;99.90;;;;;;5076291;28;20028;-74
2022/05/03 06:02:41;;;;;;;2.78;0.85;;;19.30;99.90;;;;;;5076355;28;20065;-73
2022/05/03 06:05:09;;;;;;;5.47;1.30;;;19.20;99.90;;;;;;5076313;28;20028;-73
2022/05/03 06:07:36;;;;;;;6.95;0.70;;;19.20;99.90;;;;;;5075094;28;20039;-73
2022/05/03 06:10:05;;;;;;;6.68;1.20;;;19.20;99.90;;;;;;5076155;28;20023;-73
2022/05/03 06:12:33;;;;;;;6.07;1.17;;;19.20;99.90;;;;;;5076183;28;20024;-73
2022/05/03 06:15:01;;;;;;;3.17;0.80;;;19.20;99.90;;;;;;5076004;28;20021;-73
2022/05/03 06:17:29;;;;;;;1.50;0.43;;;19.20;99.90;;;;;;5076032;28;20020;-73
2022/05/03 06:19:57;;;;;;;6.60;1.45;;;19.20;99.90;;;;;;5076097;28;20028;-73
2022/05/03 06:22:24;;;;;;;5.43;0.80;;;19.10;99.90;;;;;;5075842;28;20048;-73
2022/05/03 06:24:53;;;;;;;3.20;1.05;;;19.00;99.90;;;;;;5075627;28;20033;-73
2022/05/03 06:27:21;;;;;;;3.58;0.82;;;19.00;99.90;;;;;;5075659;28;20486;-74
2022/05/03 06:29:49;;;;;;;2.00;0.90;;;19.00;99.90;;;;;;5075792;28;20016;-73
2022/05/03 06:32:16;;;;;;;3.05;0.85;;;18.90;99.90;;;;;;5075817;28;20104;-73
2022/05/03 06:34:44;;;;;;;4.55;0.65;;;18.90;99.90;;;;;;5075839;28;20047;-75
2022/05/03 06:37:20;;;;;;;2.25;1.13;;;18.80;99.90;;;;;;5075800;28;20029;-75
2022/05/03 06:39:47;;;;;;;6.43;0.95;;;18.80;99.90;;;;;;5075798;28;20024;-74
2022/05/03 06:42:16;;;;;;;3.35;0.70;;;18.70;99.90;;;;;;5075928;28;20429;-75
2022/05/03 06:44:44;;;;;;;4.20;0.75;;;18.70;99.90;;;;;;5075941;28;20048;-75
2022/05/03 06:47:14;;;;;;;4.07;1.05;;;18.70;99.90;;;;;;5074544;28;20029;-75
2022/05/03 06:49:43;;;;;;;4.50;1.13;;;18.60;99.90;;;;;;5075867;28;20024;-76
2022/05/03 06:52:11;;;;;;;2.08;0.68;;;18.60;99.90;;;;;;5075779;28;20078;-75
2022/05/03 06:54:38;;;;;;;3.35;0.77;;;18.50;99.90;;;;;;5075617;28;20024;-75
2022/05/03 06:57:06;;;;;;;3.42;0.70;;;18.50;99.90;;;;;;5074365;28;20032;-75
2022/05/03 06:59:34;;;;;;;4.07;0.98;;;18.40;99.90;;;;;;5075535;28;20013;-75
2022/05/03 07:02:01;;;;;;;4.28;0.68;;;18.40;99.90;;;;;;5075310;28;20401;-75
2022/05/03 07:04:29;;;;;;;5.75;0.85;;;18.30;99.90;;;;;;5075434;28;20020;-75
2022/05/03 07:06:57;;;;;;;3.75;0.77;;;18.30;99.90;;;;;;5075152;28;20036;-75
2022/05/03 07:09:24;;;;;;;3.20;1.17;;;18.20;99.90;;;;;;5075625;28;20017;-75
2022/05/03 07:11:52;;;;;;;9.18;1.00;;;18.20;99.90;;;;;;5075502;28;20105;-76
2022/05/03 07:14:22;;;;;;;2.75;0.77;;;18.20;99.90;;;;;;5075266;28;20025;-75
2022/05/03 07:16:49;;;;;;;4.68;0.90;;;18.10;99.90;;;;;;5075579;28;20031;-74
2022/05/03 07:23:03;;;;;;;3.33;1.52;;;18.00;99.90;;;;;;5075472;28;20031;-74
2022/05/03 07:24:59;;;;;;;3.60;0.85;;;18.00;99.90;;;;;;5061143;28;20468;-75
2022/05/03 07:27:30;;;;;;;5.85;1.13;;;17.90;99.90;;;;;;5074729;28;20461;-76
2022/05/03 07:29:58;;;;;;;4.13;0.90;;;17.90;99.90;;;;;;5073507;28;20462;-75
2022/05/03 07:32:26;;;;;;;8.18;1.55;;;17.80;99.90;;;;;;5074748;28;20406;-75
2022/05/03 07:34:54;;;;;;;5.78;0.95;;;17.80;99.90;;;;;;5074118;28;20128;-75
2022/05/03 07:37:21;;;;;;;5.25;0.68;;;17.80;99.90;;;;;;5075215;28;20028;-74
2022/05/03 07:39:49;;;;;;;9.05;1.42;;;17.70;99.90;;;;;;5074895;28;20052;-75
2022/05/03 07:42:17;;;;;;;5.90;0.90;;;17.80;99.90;;;;;;5074722;28;20016;-75
2022/05/03 07:44:44;;;;;;;7.53;1.20;;;17.70;99.90;;;;;;5074393;28;20025;-75
2022/05/03 07:47:12;;;;;;;2.35;0.90;;;17.70;99.90;;;;;;5074409;28;20036;-75
2022/05/03 07:49:40;;;;;;;4.93;0.57;;;17.60;99.90;;;;;;5074697;28;20465;-75
2022/05/03 07:52:11;;;;;;;3.15;1.00;;;17.60;99.90;;;;;;5074378;28;20033;-75
2022/05/03 07:54:42;;;;;;;5.68;0.73;;;17.60;99.90;;;;;;5074313;28;20107;-75
2022/05/03 07:57:13;;;;;;;11.02;1.02;;;17.50;99.90;;;;;;5074352;28;20436;-76
2022/05/03 07:59:41;;;;;;;2.30;0.90;;;17.40;99.90;;;;;;5074645;28;20358;-76
2022/05/03 08:02:09;;;;;;;1.70;0.65;;;17.40;99.90;;;;;;5074501;28;20025;-76
2022/05/03 08:04:39;;;;;;;1.50;0.50;;;17.30;99.90;;;;;;5074384;28;20044;-76
2022/05/03 08:07:07;;;;;;;3.35;0.70;;;17.20;99.90;;;;;;5074183;28;20481;-76
2022/05/03 08:09:36;;;;;;;5.88;1.65;;;17.20;99.90;;;;;;5074091;28;20050;-76
2022/05/03 08:12:05;;;;;;;2.30;0.90;;;17.20;99.90;;;;;;5074032;28;20024;-75
2022/05/03 08:14:33;;;;;;;4.15;1.00;;;17.10;99.90;;;;;;5072907;28;20012;-75
2022/05/03 08:17:01;;;;;;;3.38;1.00;;;17.10;99.90;;;;;;5073827;28;20374;-76
2022/05/03 08:19:29;;;;;;;2.40;0.52;;;17.10;99.90;;;;;;5073778;28;20104;-76
2022/05/03 08:21:56;;;;;;;3.75;0.73;;;17.00;99.90;;;;;;5073849;28;20119;-75
2022/05/03 08:24:25;;;;;;;5.25;1.30;;;16.90;99.90;;;;;;5073537;28;20397;-76
2022/05/03 08:26:53;;;;;;;1.70;0.65;;;16.80;99.90;;;;;;5072564;28;20397;-76
2022/05/03 08:29:21;;;;;;;3.58;1.40;;;16.70;99.90;;;;;;5073767;28;20020;-76
2022/05/03 08:31:49;;;;;;;3.40;0.77;;;16.60;99.90;;;;;;5073409;28;20498;-76
2022/05/03 08:34:17;;;;;;;6.45;1.40;;;16.60;99.90;;;;;;5073100;28;20382;-75
2022/05/03 08:42:01;;;;;;;3.08;0.80;;;16.50;99.90;;;;;;5073553;28;20111;-76
2022/05/03 08:42:20;;;;;;;3.28;0.70;;;16.40;99.90;;;;;;5074154;28;20090;-76
2022/05/03 08:44:48;;;;;;;3.97;0.98;;;16.30;99.90;;;;;;5073269;28;20029;-75
2022/05/03 08:47:19;;;;;;;3.70;1.30;;;16.20;99.90;;;;;;5073524;28;20040;-75
2022/05/03 08:50:04;;;;;;;5.68;1.02;;;16.20;99.90;;;;;;5073606;28;20016;-76
2022/05/03 08:52:39;;;;;;;3.92;1.02;;;16.10;99.90;;;;;;5073562;28;20052;-75
2022/05/03 08:55:06;;;;;;;;;;;16.00;99.90;;;;;;5073669;28;20023;-75
2022/05/03 08:57:33;;;;;;;3.78;0.93;;;16.00;99.90;;;;;;5073233;28;19979;-76
2022/05/03 09:00:05;;;;;;;4.28;1.08;;;15.90;99.90;;;;;;5073578;28;20025;-76
2022/05/03 09:02:35;;;;;;;4.03;0.75;;;15.90;99.90;;;;;;5073474;28;20024;-75
2022/05/03 09:05:03;;;;;;;10.10;1.27;;;15.90;99.90;;;;;;5073346;28;20048;-75
2022/05/03 09:07:34;;;;;;;1.27;0.68;;;15.90;99.90;;;;;;5072696;28;20549;-76
2022/05/03 09:10:31;;;;;;;4.25;1.02;;;15.80;99.90;;;;;;5072616;28;20016;-75
2022/05/03 09:13:16;;;;;;;2.38;0.85;;;15.80;99.90;;;;;;5069604;28;20021;-75
2022/05/03 09:15:43;;;;;;;7.47;1.45;;;15.80;99.90;;;;;;5070464;28;20016;-76
2022/05/03 09:18:21;;;;;;;5.25;1.15;;;15.70;99.90;;;;;;5072576;28;20017;-76
2022/05/03 09:23:47;;;;;;;9.00;1.75;;;15.70;99.90;;;;;;5073474;28;20081;-75
2022/05/03 09:26:26;;;;;;;4.30;1.20;;;15.70;99.90;;;;;;5072903;28;20052;-75
2022/05/03 09:29:02;;;;;;;2.30;1.38;;;15.70;99.90;;;;;;5074044;28;20032;-75
2022/05/03 09:31:32;;;;;;;;;;;15.70;99.90;;;;;;5077460;28;20021;-75
2022/05/03 09:34:02;;;;;;;5.05;1.70;;;15.70;99.90;;;;;;5076766;28;19916;-76
2022/05/03 09:36:42;;;;;;;3.10;1.17;;;15.70;99.90;;;;;;5062466;28;20112;-75
2022/05/03 09:39:20;;;;;;;2.38;0.98;;;15.70;99.90;;;;;;5059869;28;20355;-75
2022/05/03 09:42:11;;;;;;;8.02;1.77;;;15.70;99.90;;;;;;5067453;28;20015;-74
2022/05/03 09:44:52;;;;;;;5.35;1.58;;;15.70;99.90;;;;;;5082075;28;20032;-75
2022/05/03 09:47:22;;;;;;;3.78;1.85;;;15.70;99.90;;;;;;5066731;28;20389;-75
2022/05/03 09:49:49;;;;;;;7.75;1.40;;;15.60;99.90;;;;;;5064105;28;20021;-75
2022/05/03 09:52:31;;;;;;;3.60;1.02;;;15.60;99.90;;;;;;5063607;28;20020;-75
2022/05/03 09:55:07;;;;;;;3.65;1.08;;;15.60;99.90;;;;;;5069593;28;20019;-75
2022/05/03 09:57:39;;;;;;;5.93;1.52;;;15.60;99.90;;;;;;5090035;28;20055;-75
2022/05/03 10:00:09;;;;;;;2.63;0.85;;;15.60;99.90;;;;;;5076476;28;20019;-76
2022/05/03 10:02:42;;;;;;;4.00;1.52;;;15.50;99.90;;;;;;5068532;28;20108;-75
2022/05/03 10:05:12;;;;;;;4.88;1.20;;;15.50;99.90;;;;;;5055720;28;20032;-75
2022/05/03 10:07:44;;;;;;;9.95;1.20;;;15.50;99.90;;;;;;5059542;28;20029;-76
2022/05/03 10:10:14;;;;;;;4.18;1.05;;;15.50;99.90;;;;;;5064687;28;20581;-77
2022/05/03 10:12:44;;;;;;;1.73;0.77;;;15.40;99.90;;;;;;5062293;28;20029;-76
2022/05/03 10:15:13;;;;;;;4.28;1.10;;;15.40;99.90;;;;;;5062200;28;20378;-76
2022/05/03 10:20:43;;;;;;;3.17;1.27;;;15.40;99.90;;;;;;5064983;28;20098;-74
2022/05/03 10:23:32;;;;;;;6.18;0.77;;;15.40;99.90;;;;;;5069097;28;20020;-76
2022/05/03 10:26:06;;;;;;;5.03;0.82;;;15.40;99.90;;;;;;5054292;28;20021;-76
2022/05/03 10:29:03;;;;;;;6.65;1.17;;;15.30;99.90;;;;;;5054275;28;20500;-76
2022/05/03 10:31:31;;;;;;;2.90;0.90;;;15.40;99.90;;;;;;5054145;28;20025;-76
2022/05/03 10:34:02;;;;;;;3.75;1.38;;;15.30;99.90;;;;;;5053973;28;20045;-76
2022/05/03 10:36:33;;;;;;;1.65;0.90;;;15.30;99.90;;;;;;5053054;28;20021;-76
2022/05/03 10:39:23;;;;;;;2.58;1.20;;;15.30;99.90;;;;;;5056669;28;20366;-76
2022/05/03 10:42:00;;;;;;;3.88;1.25;;;15.30;99.90;;;;;;5050447;28;20021;-76
2022/05/03 10:44:49;;;;;;;7.43;1.48;;;15.30;99.90;;;;;;5052397;28;20043;-75
2022/05/03 10:47:20;;;;;;;3.92;1.42;;;15.30;99.90;;;;;;5053522;28;20025;-76
2022/05/03 10:50:20;;;;;;;3.80;1.20;;;15.30;99.90;;;;;;5053675;28;20116;-74
2022/05/03 10:53:00;;;;;;;3.85;1.17;;;15.40;99.90;;;;;;5053479;28;20128;-76
2022/05/03 10:55:32;;;;;;;4.82;1.35;;;15.30;99.90;;;;;;5053425;28;20059;-75
2022/05/03 10:58:18;;;;;;;3.97;1.98;;;15.30;99.90;;;;;;5053330;28;20051;-76
2022/05/03 11:01:14;;;;;;;2.30;0.90;;;15.30;99.90;;;;;;5053656;28;20025;-75
2022/05/03 11:03:51;;;;;;;4.30;1.10;;;15.30;99.90;;;;;;5053710;28;20021;-76
2022/05/03 11:06:18;;;;;;;3.72;0.98;;;15.30;99.90;;;;;;5054459;28;20086;-76
2022/05/03 11:11:43;;;;;;;3.45;1.20;;;15.30;99.90;;;;;;5053969;28;20021;-76
2022/05/03 11:16:45;;;;;;;2.38;1.15;;;15.30;99.90;;;;;;5053949;28;20040;-75
2022/05/03 11:19:21;;;;;;;2.55;1.25;;;15.30;99.90;;;;;;5053368;28;20024;-75
2022/05/03 11:21:50;;;;;;;4.63;1.35;;;15.20;99.90;;;;;;5053247;28;20022;-75
2022/05/03 11:24:21;;;;;;;3.65;1.25;;;15.20;99.90;;;;;;5057069;28;20029;-75
2022/05/03 11:26:50;;;;;;;2.65;1.17;;;15.20;99.90;;;;;;5072270;28;20131;-76
2022/05/03 11:29:18;;;;;;;7.15;1.25;;;15.20;99.90;;;;;;5053881;28;20027;-75
2022/05/03 11:31:51;;;;;;;2.78;1.00;;;15.20;99.90;;;;;;5053666;28;20059;-76
2022/05/03 11:34:19;;;;;;;2.58;1.20;;;15.20;99.90;;;;;;5053221;28;20126;-74
2022/05/03 11:36:50;;;;;;;4.72;1.63;;;15.20;99.90;;;;;;5053506;28;20025;-75
2022/05/03 11:39:18;;;;;;;5.50;1.25;;;15.20;99.90;;;;;;5053342;28;20017;-75
2022/05/03 11:41:47;;;;;;;2.97;0.95;;;15.20;99.90;;;;;;5053621;28;20031;-75
2022/05/03 11:44:16;;;;;;;2.78;0.88;;;15.20;99.90;;;;;;5054866;28;20021;-75
2022/05/03 11:46:45;;;;;;;4.40;1.10;;;15.10;99.90;;;;;;5051462;28;20128;-75
2022/05/03 11:49:14;;;;;;;3.33;1.33;;;15.10;99.90;;;;;;5053170;28;20021;-75
2022/05/03 11:57:31;;;;;;;4.40;1.40;;;15.10;99.90;;;;;;5053131;28;20020;-76
2022/05/03 12:00:00;;;;;;;6.60;1.30;;;15.10;99.90;;;;;;5053043;28;20036;-76
2022/05/03 12:02:34;;;;;;;2.63;1.40;;;15.10;99.90;;;;;;5053569;28;20021;-76
2022/05/03 12:05:40;;;;;;;5.18;1.20;;;15.00;99.90;;;;;;5053841;28;20025;-76
2022/05/03 12:08:01;;;;;;;2.67;0.98;;;15.00;99.90;;;;;;5052745;28;20134;-76
2022/05/03 12:10:30;;;;;;;1.40;0.85;;;15.00;99.90;;;;;;5053901;28;20029;-75
2022/05/03 12:13:12;;;;;;;2.13;0.82;;;15.00;99.90;;;;;;5052800;28;20028;-75
2022/05/03 12:15:47;;;;;;;6.20;1.48;;;15.00;99.90;;;;;;5079479;28;20039;-77
2022/05/03 12:18:30;;;;;;;2.03;1.25;;;15.00;99.90;;;;;;5072210;28;20020;-73
2022/05/03 12:21:03;;;;;;;4.70;1.48;;;15.00;99.90;;;;;;5057429;28;20526;-75
2022/05/03 12:23:38;;;;;;;5.72;1.05;;;15.00;99.90;;;;;;5071830;28;20032;-75
2022/05/03 12:26:35;;;;;;;4.60;0.90;;;15.00;99.90;;;;;;5057691;28;20162;-75
2022/05/03 12:29:04;;;;;;;1.40;0.77;;;15.00;99.90;;;;;;5048911;28;20044;-75
2022/05/03 12:31:37;;;;;;;2.60;1.35;;;15.00;99.90;;;;;;5065793;28;20021;-75
2022/05/03 12:34:08;;;;;;;7.15;1.60;;;15.00;99.90;;;;;;5070132;28;20386;-76
2022/05/03 12:36:44;;;;;;;2.65;1.27;;;15.00;99.90;;;;;;5069948;28;20095;-75
2022/05/03 12:39:20;;;;;;;6.50;1.30;;;15.00;99.90;;;;;;5071256;28;20009;-76
2022/05/03 12:42:00;;;;;;;2.88;1.83;;;15.00;99.90;;;;;;5070962;28;20086;-76
2022/05/03 12:44:28;;;;;;;9.85;1.08;;;15.00;99.90;;;;;;5070605;28;20021;-76
2022/05/03 12:47:03;;;;;;;2.35;0.77;;;14.90;99.90;;;;;;5073125;28;20068;-76
2022/05/03 12:49:31;;;;;;;5.20;1.17;;;14.90;99.90;;;;;;5073306;28;20504;-75
2022/05/03 12:51:58;;;;;;;4.32;1.10;;;14.90;99.90;;;;;;5073411;28;20029;-75
2022/05/03 12:54:26;;;;;;;7.55;1.35;;;14.90;99.90;;;;;;5072941;28;20025;-76
2022/05/03 12:59:38;;;;;;;4.97;1.40;;;14.90;99.90;;;;;;5073591;28;20040;-77
2022/05/03 13:02:07;;;;;;;2.40;0.90;;;15.00;99.90;;;;;;5073083;28;20031;-77
2022/05/03 13:04:35;;;;;;;2.33;1.02;;;14.90;99.90;;;;;;5071620;28;20027;-76
2022/05/03 13:07:02;;;;;;;1.30;0.70;;;15.00;99.90;;;;;;5077317;28;20065;-75
2022/05/03 13:09:31;;;;;;;3.17;1.20;;;14.90;99.90;;;;;;5077309;28;20025;-75
2022/05/03 13:11:59;;;;;;;5.80;1.10;;;15.00;99.90;;;;;;5075517;28;20492;-75
2022/05/03 13:14:28;;;;;;;5.32;1.20;;;15.00;99.90;;;;;;5075747;28;20033;-75
2022/05/03 13:16:56;;;;;;;3.17;1.27;;;15.00;99.90;;;;;;5076611;28;20024;-74
2022/05/03 13:19:23;;;;;;;5.20;1.35;;;14.90;99.90;;;;;;5077229;28;20016;-75
2022/05/03 13:21:53;;;;;;;2.10;0.88;;;14.90;99.90;;;;;;5076871;28;20024;-74
2022/05/03 13:24:21;;;;;;;5.15;1.08;;;14.90;99.90;;;;;;5076956;28;20025;-75
2022/05/03 13:26:49;;;;;;;5.13;1.50;;;14.90;99.90;;;;;;5077056;28;20477;-74
2022/05/03 13:29:18;;;;;;;2.35;0.85;;;14.90;99.90;;;;;;5072078;28;20025;-75
2022/05/03 13:31:45;;;;;;;4.82;1.05;;;14.90;99.90;;;;;;5076790;28;20031;-75
2022/05/03 13:34:14;;;;;;;3.75;1.23;;;14.80;99.90;;;;;;5076325;28;20041;-74
2022/05/03 13:42:13;;;;;;;14.05;0.88;;;14.80;99.90;;;;;;5076764;28;20069;-75
2022/05/03 13:44:41;;;;;;;3.78;0.82;;;14.80;99.90;;;;;;5076241;28;20097;-74
2022/05/03 13:47:12;;;;;;;2.72;0.93;;;14.80;99.90;;;;;;5076586;28;20481;-74
2022/05/03 13:49:40;;;;;;;3.15;0.82;;;14.70;99.90;;;;;;5076539;28;20021;-74
2022/05/03 13:52:08;;;;;;;1.60;0.70;;;14.70;99.90;;;;;;5076535;28;20039;-74
2022/05/03 13:54:35;;;;;;;6.22;1.00;;;14.70;99.90;;;;;;5076081;28;20028;-74
2022/05/03 13:57:03;;;;;;;2.63;0.88;;;14.70;99.90;;;;;;5076327;28;20070;-74
2022/05/03 13:59:30;;;;;;;4.05;1.00;;;14.70;99.90;;;;;;5076236;28;20523;-73